Time;durP1;ratioP1;P1;durP2;ratioP2;P2;SDS_P1;SDS_P2;PMS_P1;PMS_P2;Temp;Humidity;BMP_temperature;BMP_pressure;BME280_temperature;BME280_humidity;BME280_pressure;Samples;Min_cycle;Max_cycle;Signal;HPM_P1;HPM_P2
2022/11/05 00:09:37;;;;;;;4.25;2.53;;;20.40;45.80;19.60;100963.00;;;;5066495;28;20113;-73
2022/11/05 00:17:37;;;;;;;3.33;2.30;;;20.40;45.70;19.50;100966.00;;;;5070482;28;20497;-72
2022/11/05 00:20:04;;;;;;;3.67;2.57;;;20.40;45.80;19.60;100974.00;;;;5068791;28;20032;-72
2022/11/05 00:25:18;;;;;;;5.35;2.97;;;20.40;45.70;19.60;100978.00;;;;5062333;28;20044;-72
2022/11/05 00:27:45;;;;;;;2.88;2.38;;;20.40;45.80;19.50;100979.00;;;;5071080;28;20032;-72
2022/11/05 00:30:17;;;;;;;3.22;2.15;;;20.40;45.80;19.50;100979.00;;;;5050614;28;20136;-72
2022/11/05 00:32:45;;;;;;;2.80;2.00;;;20.40;45.80;19.60;100984.00;;;;5068493;28;20036;-72
2022/11/05 00:35:10;;;;;;;2.85;2.13;;;20.40;45.80;19.50;100977.00;;;;5069008;28;20055;-72
2022/11/05 00:37:36;;;;;;;5.37;2.70;;;20.40;45.80;19.50;100983.00;;;;5061672;28;20090;-73
2022/11/05 00:40:03;;;;;;;4.03;2.20;;;20.40;45.80;19.50;100993.00;;;;5069805;28;20111;-72
2022/11/05 00:45:13;;;;;;;3.25;2.20;;;20.40;45.80;19.50;100999.00;;;;5074921;28;20039;-72
2022/11/05 00:50:23;;;;;;;3.33;2.58;;;20.40;45.80;19.50;100996.00;;;;5062916;28;20044;-72
2022/11/05 00:52:56;;;;;;;8.90;3.40;;;20.40;45.80;19.50;101000.00;;;;5052730;28;20047;-72
2022/11/05 00:55:37;;;;;;;4.45;2.40;;;20.40;45.80;19.50;100994.00;;;;5051692;28;20075;-72
2022/11/05 00:58:04;;;;;;;3.10;2.65;;;20.40;45.80;19.50;100995.00;;;;5052067;28;20029;-72
2022/11/05 01:00:31;;;;;;;2.88;2.40;;;20.40;45.80;19.50;101001.00;;;;5068744;28;20032;-72
2022/11/05 01:03:02;;;;;;;2.88;1.90;;;20.40;45.80;19.50;101002.00;;;;5069782;28;20416;-72
2022/11/05 01:05:29;;;;;;;3.60;2.25;;;20.40;45.80;19.50;100994.00;;;;5068294;28;20040;-72
2022/11/05 01:07:54;;;;;;;5.15;2.42;;;20.40;45.80;19.50;100999.00;;;;5069851;28;20044;-72
2022/11/05 01:10:20;;;;;;;3.57;1.93;;;20.40;45.80;19.50;101004.00;;;;5050571;28;20045;-72
2022/11/05 01:12:46;;;;;;;3.10;2.08;;;20.40;45.80;19.50;101005.00;;;;5075578;28;20033;-72
2022/11/05 01:15:12;;;;;;;5.05;2.58;;;20.40;45.80;19.50;101003.00;;;;5068601;28;20157;-72
2022/11/05 01:17:38;;;;;;;3.63;2.27;;;20.40;45.80;19.50;101008.00;;;;5070126;28;20043;-72
2022/11/05 01:20:04;;;;;;;2.67;2.07;;;20.40;45.80;19.50;101010.00;;;;5069105;28;20102;-72
2022/11/05 01:22:30;;;;;;;2.53;2.20;;;20.40;45.70;19.50;101010.00;;;;5069338;28;20071;-72
2022/11/05 01:24:56;;;;;;;4.17;2.07;;;20.40;45.70;19.50;101019.00;;;;5068595;28;20100;-72
2022/11/05 01:27:21;;;;;;;3.23;2.00;;;20.40;45.70;19.50;101014.00;;;;5070466;28;20415;-72
2022/11/05 01:29:47;;;;;;;4.87;2.03;;;20.40;45.70;19.50;101020.00;;;;5069639;28;20535;-72
2022/11/05 01:32:13;;;;;;;4.33;1.77;;;20.40;45.70;19.50;101018.00;;;;5069785;28;20137;-73
2022/11/05 01:34:38;;;;;;;3.37;2.13;;;20.40;45.70;19.50;101018.00;;;;5072920;28;20450;-72
2022/11/05 01:37:04;;;;;;;4.33;1.90;;;20.40;45.70;19.50;101021.00;;;;5073468;28;20490;-72
2022/11/05 01:39:30;;;;;;;3.23;1.80;;;20.40;45.70;19.50;101024.00;;;;5067412;28;20119;-72
2022/11/05 01:41:57;;;;;;;3.37;2.13;;;20.30;45.60;19.50;101030.00;;;;5073536;28;20056;-72
2022/11/05 01:45:17;;;;;;;3.28;1.70;;;20.40;45.70;19.50;101019.00;;;;5072914;28;20033;-72
2022/11/05 01:48:07;;;;;;;2.53;1.73;;;20.40;45.60;19.40;101022.00;;;;5073273;28;20082;-72
2022/11/05 01:50:52;;;;;;;2.42;1.73;;;20.50;45.70;19.40;101024.00;;;;5055326;28;20047;-72
2022/11/05 01:53:33;;;;;;;3.03;1.48;;;20.30;45.50;19.40;101022.00;;;;5039044;28;20024;-72
2022/11/05 01:56:36;;;;;;;2.40;1.55;;;20.30;45.50;19.40;101031.00;;;;5051990;28;20040;-72
2022/11/05 01:59:22;;;;;;;2.03;1.45;;;20.30;45.50;19.40;101024.00;;;;5054963;28;20021;-72
2022/11/05 02:01:49;;;;;;;2.58;1.35;;;20.30;45.50;19.40;101028.00;;;;5072337;28;20024;-72
2022/11/05 02:04:20;;;;;;;2.08;1.38;;;20.30;45.60;19.40;101031.00;;;;5054912;28;20121;-72
2022/11/05 02:06:45;;;;;;;2.45;1.55;;;20.30;45.60;19.40;101047.00;;;;5053806;28;20071;-72
2022/11/05 02:09:29;;;;;;;1.70;1.60;;;20.30;45.60;19.40;101038.00;;;;5054748;28;20218;-72
2022/11/05 02:11:54;;;;;;;1.95;1.55;;;20.30;45.50;19.40;101038.00;;;;5048743;28;20119;-72
2022/11/05 02:14:20;;;;;;;1.97;1.40;;;20.30;45.60;19.40;101037.00;;;;5071746;28;20478;-72
2022/11/05 02:17:02;;;;;;;1.53;1.30;;;20.30;45.60;19.40;101040.00;;;;5072616;28;20511;-72
2022/11/05 02:19:57;;;;;;;2.53;1.70;;;20.30;45.50;19.40;101046.00;;;;5056997;28;20028;-73
2022/11/05 02:22:36;;;;;;;3.75;1.65;;;20.20;45.40;19.40;101051.00;;;;5075034;28;20024;-72
2022/11/05 02:25:33;;;;;;;2.67;1.42;;;20.20;45.40;19.40;101048.00;;;;5071012;28;20068;-72
2022/11/05 02:28:16;;;;;;;2.10;1.65;;;20.20;45.40;19.30;101058.00;;;;5056351;28;20024;-72
2022/11/05 02:30:57;;;;;;;3.17;1.35;;;20.20;45.30;19.40;101057.00;;;;5056518;28;20043;-72
2022/11/05 02:33:40;;;;;;;1.27;1.10;;;20.20;45.30;19.30;101064.00;;;;5055741;28;20036;-72
2022/11/05 02:36:19;;;;;;;1.30;1.20;;;20.20;45.40;19.30;101060.00;;;;5045008;28;20040;-72
2022/11/05 02:39:05;;;;;;;1.40;1.10;;;20.20;45.30;19.30;101061.00;;;;5055063;28;20028;-72
2022/11/05 02:42:19;;;;;;;2.78;1.30;;;20.20;45.30;19.30;101065.00;;;;5052578;28;20075;-72
2022/11/05 02:45:14;;;;;;;3.53;1.15;;;20.20;45.30;19.30;101059.00;;;;5056617;28;20072;-72
2022/11/05 02:48:20;;;;;;;2.17;1.20;;;20.20;45.30;19.30;101064.00;;;;5072487;28;20370;-72
2022/11/05 02:51:01;;;;;;;1.45;1.00;;;20.10;45.30;19.30;101051.00;;;;5068145;28;20033;-72
2022/11/05 02:53:49;;;;;;;1.25;1.05;;;20.20;45.30;19.30;101056.00;;;;5053962;28;20494;-72
2022/11/05 02:56:27;;;;;;;1.25;1.13;;;20.10;45.20;19.30;101063.00;;;;5034954;28;20405;-72
2022/11/05 02:58:53;;;;;;;1.33;1.00;;;20.10;45.20;19.30;101059.00;;;;5053361;28;20028;-72
2022/11/05 03:01:19;;;;;;;1.10;1.00;;;20.10;45.20;19.30;101056.00;;;;5057005;28;20110;-73
2022/11/05 03:03:59;;;;;;;1.57;0.87;;;20.10;45.20;19.30;101048.00;;;;5072264;28;20099;-72
2022/11/05 03:06:55;;;;;;;1.00;0.90;;;20.10;45.20;19.30;101065.00;;;;5054333;28;20558;-72
2022/11/05 03:09:39;;;;;;;1.35;1.10;;;20.10;45.10;19.20;101062.00;;;;5071164;28;20029;-72
2022/11/05 03:12:32;;;;;;;3.13;1.20;;;20.10;45.10;19.20;101055.00;;;;5048654;28;20024;-72
2022/11/05 03:15:25;;;;;;;2.15;1.20;;;20.10;45.10;19.20;101053.00;;;;5051298;28;20410;-72
2022/11/05 03:18:35;;;;;;;2.15;0.90;;;20.10;45.10;19.20;101050.00;;;;5052488;28;20111;-72
2022/11/05 03:21:08;;;;;;;1.73;1.17;;;20.10;45.00;19.20;101054.00;;;;5070016;28;20056;-72
2022/11/05 03:23:44;;;;;;;1.55;1.17;;;20.10;45.00;19.20;101052.00;;;;5053530;28;20376;-72
2022/11/05 03:26:29;;;;;;;1.48;1.38;;;20.10;45.00;19.20;101060.00;;;;5070294;28;20033;-72
2022/11/05 03:29:08;;;;;;;1.13;1.02;;;20.10;45.00;19.20;101056.00;;;;5065679;28;20025;-72
2022/11/05 03:31:34;;;;;;;1.92;1.20;;;20.10;44.90;19.20;101067.00;;;;5054506;28;20036;-72
2022/11/05 03:34:00;;;;;;;1.77;1.13;;;20.00;44.90;19.20;101071.00;;;;5051241;28;20390;-72
2022/11/05 03:36:47;;;;;;;1.57;1.03;;;20.00;44.90;19.20;101069.00;;;;5053069;28;20032;-72
2022/11/05 03:39:19;;;;;;;1.20;1.10;;;20.00;44.90;19.20;101070.00;;;;5078978;28;20021;-72
2022/11/05 03:41:48;;;;;;;1.00;0.90;;;20.00;44.80;19.20;101069.00;;;;5052164;28;20029;-72
2022/11/05 03:44:14;;;;;;;1.27;1.17;;;20.00;44.80;19.20;101071.00;;;;5052625;28;20043;-72
2022/11/05 03:46:43;;;;;;;2.35;1.35;;;20.00;44.80;19.20;101074.00;;;;5057958;28;20506;-72
2022/11/05 03:49:11;;;;;;;2.45;1.40;;;20.00;44.80;19.10;101077.00;;;;5034672;28;20153;-72
2022/11/05 03:52:01;;;;;;;1.60;1.20;;;20.00;44.80;19.10;101069.00;;;;5050496;28;20032;-73
2022/11/05 03:54:27;;;;;;;2.55;1.35;;;20.00;44.60;19.10;101065.00;;;;5037299;28;20024;-72
2022/11/05 03:57:02;;;;;;;1.17;0.93;;;20.00;44.70;19.10;101060.00;;;;5052457;28;20047;-72
2022/11/05 03:59:29;;;;;;;1.75;1.08;;;20.00;44.70;19.10;101065.00;;;;5059118;28;20463;-72
2022/11/05 04:01:55;;;;;;;0.85;0.82;;;20.00;44.60;19.10;101073.00;;;;5043383;28;20472;-72
2022/11/05 04:04:21;;;;;;;1.10;1.00;;;20.00;44.60;19.10;101069.00;;;;5052848;28;20066;-72
2022/11/05 04:15:00;;;;;;;1.48;1.38;;;19.90;44.50;19.10;101084.00;;;;5069091;28;20039;-72
2022/11/05 04:17:25;;;;;;;1.87;1.20;;;19.90;44.50;19.00;101089.00;;;;5070909;28;20025;-72
2022/11/05 04:25:20;;;;;;;1.00;0.90;;;19.90;44.40;19.00;101088.00;;;;5069931;28;20039;-72
2022/11/05 04:27:47;;;;;;;2.28;1.15;;;19.90;44.40;19.00;101087.00;;;;5069801;28;20082;-72
2022/11/05 04:30:17;;;;;;;1.83;1.15;;;19.90;44.40;19.00;101096.00;;;;5070648;28;20397;-72
2022/11/05 04:32:58;;;;;;;2.08;1.10;;;19.80;44.40;19.00;101101.00;;;;5070815;28;20120;-72
2022/11/05 04:35:24;;;;;;;1.10;1.00;;;19.80;44.30;19.00;101096.00;;;;5069420;28;20033;-72
2022/11/05 04:37:49;;;;;;;1.77;0.90;;;19.90;44.40;19.00;101102.00;;;;5051846;28;20024;-72
2022/11/05 04:40:15;;;;;;;1.43;1.10;;;19.80;44.30;19.00;101105.00;;;;5069275;28;20029;-72
2022/11/05 04:42:41;;;;;;;1.13;1.03;;;19.80;44.30;19.00;101108.00;;;;5069925;28;20405;-72
2022/11/05 04:45:07;;;;;;;1.30;1.10;;;19.80;44.30;19.00;101110.00;;;;5070127;28;20169;-72
2022/11/05 04:47:32;;;;;;;0.90;0.90;;;19.80;44.20;19.00;101117.00;;;;5065907;28;20456;-72
2022/11/05 04:49:58;;;;;;;0.90;0.90;;;19.80;44.20;19.00;101117.00;;;;5069050;28;20554;-73
2022/11/05 04:52:24;;;;;;;1.80;0.90;;;19.80;44.10;19.00;101124.00;;;;5069875;28;20104;-72
2022/11/05 04:54:50;;;;;;;1.00;0.90;;;19.80;44.10;19.00;101123.00;;;;5069447;28;20385;-72
2022/11/05 04:57:15;;;;;;;1.57;1.00;;;19.80;44.10;19.00;101122.00;;;;5070119;28;20075;-73
2022/11/05 04:59:41;;;;;;;1.23;0.83;;;19.80;44.10;19.00;101116.00;;;;5069272;28;20528;-72
2022/11/05 05:02:07;;;;;;;1.27;1.10;;;19.80;44.10;19.00;101117.00;;;;5069013;28;20549;-72
2022/11/05 05:04:33;;;;;;;1.20;1.10;;;19.80;44.00;19.00;101114.00;;;;5070013;28;20028;-72
2022/11/05 05:06:58;;;;;;;1.20;1.10;;;19.80;44.00;19.00;101117.00;;;;5071368;28;20526;-72
2022/11/05 05:09:24;;;;;;;1.00;0.90;;;19.80;44.00;18.90;101117.00;;;;5073586;28;20063;-72
2022/11/05 05:11:50;;;;;;;1.60;0.90;;;19.80;44.00;18.90;101119.00;;;;5073111;28;20127;-72
2022/11/05 05:14:15;;;;;;;1.23;1.07;;;19.80;44.00;18.90;101120.00;;;;5073039;28;20050;-72
2022/11/05 05:16:41;;;;;;;1.30;1.10;;;19.80;43.90;18.90;101112.00;;;;5055654;28;20378;-72
2022/11/05 05:19:07;;;;;;;1.40;1.10;;;19.80;43.90;18.90;101129.00;;;;5073629;28;20131;-72
2022/11/05 05:21:39;;;;;;;0.80;0.80;;;19.80;43.90;18.90;101128.00;;;;5055344;28;20035;-72
2022/11/05 05:24:17;;;;;;;1.08;0.93;;;19.80;43.90;18.90;101138.00;;;;5073268;28;20044;-72
2022/11/05 05:26:48;;;;;;;1.10;1.00;;;19.80;43.80;18.90;101131.00;;;;5072124;28;20024;-72
2022/11/05 05:29:14;;;;;;;1.08;1.05;;;19.70;43.80;18.90;101131.00;;;;5074166;28;20475;-72
2022/11/05 05:31:40;;;;;;;1.15;1.00;;;19.80;44.50;18.90;101138.00;;;;5080118;28;20020;-72
2022/11/05 05:34:06;;;;;;;1.33;1.03;;;19.80;43.80;18.90;101141.00;;;;5054500;28;20045;-72
2022/11/05 05:36:32;;;;;;;1.10;1.00;;;19.70;43.80;18.90;101139.00;;;;5073622;28;20052;-72
2022/11/05 05:38:57;;;;;;;1.40;0.88;;;19.80;43.80;18.90;101148.00;;;;5072790;28;20056;-72
2022/11/05 05:41:23;;;;;;;1.23;0.90;;;19.80;43.80;18.90;101152.00;;;;5072222;28;20039;-72
2022/11/05 05:43:49;;;;;;;1.00;1.00;;;19.70;43.70;18.90;101150.00;;;;5072906;28;20116;-72
2022/11/05 05:46:16;;;;;;;1.27;1.00;;;19.70;43.70;18.90;101153.00;;;;5072507;28;20461;-72
2022/11/05 05:48:42;;;;;;;1.98;1.10;;;19.70;43.70;18.90;101143.00;;;;5073517;28;20021;-72
2022/11/05 05:51:10;;;;;;;1.00;1.00;;;19.70;43.70;18.90;101152.00;;;;5071902;28;20070;-72
2022/11/05 05:53:35;;;;;;;1.00;0.98;;;19.70;43.70;18.80;101154.00;;;;5055132;28;20027;-72
2022/11/05 05:56:01;;;;;;;1.03;1.00;;;19.70;43.70;18.80;101163.00;;;;5054290;28;20024;-72
2022/11/05 05:58:34;;;;;;;1.33;1.07;;;19.70;43.70;18.80;101158.00;;;;5068957;28;20455;-72
2022/11/05 06:01:05;;;;;;;0.88;0.80;;;19.70;43.60;18.80;101164.00;;;;5045154;28;20086;-72
2022/11/05 06:03:31;;;;;;;1.20;1.00;;;19.70;43.60;18.80;101167.00;;;;5068790;28;20055;-72
2022/11/05 06:06:05;;;;;;;1.10;1.00;;;19.70;43.60;18.80;101172.00;;;;5068830;28;20058;-72
2022/11/05 06:08:31;;;;;;;0.88;0.88;;;19.70;43.60;18.80;101177.00;;;;5067452;28;20446;-72
2022/11/05 06:10:57;;;;;;;1.43;0.80;;;19.70;43.60;18.80;101171.00;;;;5049212;28;20033;-72
2022/11/05 06:13:23;;;;;;;0.95;0.85;;;19.70;43.60;18.80;101179.00;;;;5051225;28;20070;-72
2022/11/05 06:15:49;;;;;;;1.05;0.95;;;19.70;43.70;18.80;101184.00;;;;5046792;28;20082;-72
2022/11/05 06:18:15;;;;;;;1.20;0.90;;;19.60;43.50;18.80;101187.00;;;;5066348;28;20508;-72
2022/11/05 06:20:41;;;;;;;0.93;0.83;;;19.70;43.60;18.80;101185.00;;;;5063375;28;20132;-72
2022/11/05 06:23:06;;;;;;;0.93;0.87;;;19.60;43.50;18.80;101188.00;;;;5050439;28;20081;-72
2022/11/05 06:25:32;;;;;;;1.13;0.80;;;19.70;43.60;18.80;101195.00;;;;5049601;28;20029;-72
2022/11/05 06:27:58;;;;;;;1.60;0.80;;;19.70;43.50;18.80;101190.00;;;;5054958;28;20028;-72
2022/11/05 06:30:24;;;;;;;1.02;0.95;;;19.60;43.50;18.80;101199.00;;;;5072384;28;20267;-72
2022/11/05 06:32:50;;;;;;;0.90;0.87;;;19.60;43.50;18.80;101200.00;;;;5073302;28;20698;-73
2022/11/05 06:35:15;;;;;;;0.97;0.93;;;19.60;43.40;18.80;101201.00;;;;5067778;28;20119;-72
2022/11/05 06:37:41;;;;;;;1.53;1.43;;;19.60;43.40;18.70;101210.00;;;;5073125;28;20049;-72
2022/11/05 06:40:07;;;;;;;0.80;0.80;;;19.70;43.50;18.80;101211.00;;;;5070429;28;20020;-72
2022/11/05 06:42:33;;;;;;;1.10;0.98;;;19.60;43.40;18.80;101209.00;;;;5073362;28;20036;-72
2022/11/05 06:44:59;;;;;;;7.13;1.17;;;19.60;43.40;18.70;101209.00;;;;5069667;28;20406;-72
2022/11/05 06:47:25;;;;;;;2.83;0.73;;;19.70;43.70;18.70;101219.00;;;;5067793;28;20150;-72
2022/11/05 06:49:50;;;;;;;8.50;1.77;;;19.60;43.60;18.70;101226.00;;;;5059978;28;20107;-72
2022/11/05 06:52:16;;;;;;;4.23;2.03;;;19.60;42.40;18.70;101218.00;;;;5060970;28;20103;-72
2022/11/05 06:54:42;;;;;;;3.80;1.30;;;19.60;43.10;18.60;101219.00;;;;5068350;28;20111;-72
2022/11/05 06:57:09;;;;;;;5.70;1.50;;;19.60;43.10;18.60;101227.00;;;;5051866;28;20031;-72
2022/11/05 06:59:36;;;;;;;4.45;1.35;;;19.60;43.10;18.60;101221.00;;;;5067186;28;20025;-72
2022/11/05 07:02:03;;;;;;;13.40;1.60;;;19.50;43.00;18.60;101221.00;;;;5061696;28;20112;-72
2022/11/05 07:04:28;;;;;;;13.27;1.60;;;19.50;43.00;18.60;101222.00;;;;5047431;28;20386;-72
2022/11/05 07:06:54;;;;;;;2.93;1.10;;;19.50;43.00;18.60;101236.00;;;;5070777;28;20033;-72
2022/11/05 07:09:20;;;;;;;4.97;1.10;;;19.50;43.10;18.60;101227.00;;;;5069748;28;20082;-72
2022/11/05 07:11:45;;;;;;;5.70;1.10;;;19.50;43.10;18.60;101230.00;;;;5069434;28;20116;-72
2022/11/05 07:14:11;;;;;;;1.90;1.00;;;19.50;43.10;18.60;101235.00;;;;5069676;28;20427;-72
2022/11/05 07:16:37;;;;;;;1.63;0.87;;;19.40;43.00;18.60;101238.00;;;;5070724;28;20058;-72
2022/11/05 07:19:03;;;;;;;4.10;1.10;;;19.40;43.10;18.60;101237.00;;;;5069735;28;20090;-72
2022/11/05 07:21:28;;;;;;;2.30;1.13;;;19.50;43.10;18.60;101244.00;;;;5067519;28;20115;-72
2022/11/05 07:23:54;;;;;;;4.27;1.10;;;19.50;43.10;18.60;101238.00;;;;5052665;28;20120;-72
2022/11/05 07:26:20;;;;;;;3.40;1.13;;;19.50;43.10;18.60;101244.00;;;;5068335;28;20059;-72
2022/11/05 07:28:46;;;;;;;3.63;1.20;;;19.50;43.10;18.60;101238.00;;;;5053479;28;20060;-73
2022/11/05 07:31:11;;;;;;;1.27;1.07;;;19.50;43.10;18.60;101246.00;;;;5067177;28;20111;-72
2022/11/05 07:33:37;;;;;;;4.43;0.87;;;19.50;43.10;18.60;101253.00;;;;5069998;28;20162;-72
2022/11/05 07:36:03;;;;;;;7.60;1.10;;;19.50;43.10;18.60;101255.00;;;;5071011;28;20107;-72
2022/11/05 07:38:29;;;;;;;1.98;1.02;;;19.50;43.10;18.60;101261.00;;;;5070311;28;20031;-72
2022/11/05 07:40:55;;;;;;;1.47;1.10;;;19.50;43.10;18.60;101267.00;;;;5050559;28;20020;-72
2022/11/05 07:43:20;;;;;;;2.10;1.20;;;19.50;43.10;18.60;101274.00;;;;5035586;28;20884;-72
2022/11/05 07:45:46;;;;;;;1.93;1.40;;;19.50;43.10;18.60;101263.00;;;;5070451;28;20048;-71
2022/11/05 07:48:12;;;;;;;1.40;0.70;;;19.50;43.10;18.60;101265.00;;;;5064940;28;20066;-71
2022/11/05 07:50:38;;;;;;;1.10;1.00;;;19.50;43.10;18.60;101261.00;;;;5049833;28;20074;-72
2022/11/05 07:53:14;;;;;;;5.80;1.50;;;19.50;43.10;18.60;101260.00;;;;5069310;28;20116;-72
2022/11/05 07:55:40;;;;;;;1.67;1.08;;;19.50;43.10;18.60;101253.00;;;;5063581;28;20572;-73
2022/11/05 07:58:06;;;;;;;1.10;0.90;;;19.50;43.10;18.60;101249.00;;;;5067351;28;20029;-73
2022/11/05 08:00:32;;;;;;;0.90;0.90;;;19.50;43.20;18.60;101251.00;;;;5048346;28;20059;-72
2022/11/05 08:03:12;;;;;;;2.40;1.17;;;19.60;43.20;18.60;101247.00;;;;5078440;28;20051;-72
2022/11/05 08:05:39;;;;;;;1.10;1.00;;;19.50;43.10;18.60;101257.00;;;;5069486;28;20463;-72
2022/11/05 08:08:06;;;;;;;1.20;1.00;;;19.50;43.20;18.60;101249.00;;;;5050930;28;20036;-72
2022/11/05 08:10:32;;;;;;;0.93;0.90;;;19.50;43.10;18.60;101253.00;;;;5067759;28;20121;-72
2022/11/05 08:12:58;;;;;;;0.98;0.80;;;19.50;43.20;18.60;101265.00;;;;5066594;28;20070;-72
2022/11/05 08:15:24;;;;;;;1.67;1.23;;;19.50;43.20;18.60;101256.00;;;;5067380;28;20436;-72
2022/11/05 08:18:03;;;;;;;1.00;0.80;;;19.60;43.90;18.60;101254.00;;;;5068459;28;20046;-72
2022/11/05 08:20:29;;;;;;;1.92;1.38;;;19.60;43.20;18.60;101265.00;;;;5052520;28;20466;-72
2022/11/05 08:22:55;;;;;;;1.57;0.80;;;19.60;43.20;18.60;101264.00;;;;5061890;28;20023;-72
2022/11/05 08:25:21;;;;;;;;;;;19.60;43.20;18.60;101261.00;;;;5063651;28;20524;-73
2022/11/05 08:27:47;;;;;;;0.95;0.90;;;19.60;43.40;18.60;101265.00;;;;5064171;28;19920;-75
2022/11/05 08:30:13;;;;;;;2.23;0.93;;;19.60;43.20;18.60;101263.00;;;;5048445;28;20435;-74
2022/11/05 08:32:38;;;;;;;1.43;1.20;;;19.60;43.20;18.60;101267.00;;;;5064062;28;20020;-74
2022/11/05 08:35:05;;;;;;;1.10;1.07;;;19.60;43.20;18.60;101270.00;;;;5062474;28;20119;-74
2022/11/05 08:37:31;;;;;;;1.27;1.00;;;19.60;43.20;18.70;101277.00;;;;5049074;28;20032;-73
2022/11/05 08:39:56;;;;;;;1.75;1.25;;;19.60;43.20;18.60;101277.00;;;;5069585;28;20354;-72
2022/11/05 08:42:22;;;;;;;2.30;1.17;;;19.60;43.20;18.60;101273.00;;;;5064847;28;20032;-73
2022/11/05 08:44:48;;;;;;;1.00;1.00;;;19.60;43.20;18.70;101267.00;;;;5068378;28;20117;-73
2022/11/05 08:47:13;;;;;;;1.30;1.20;;;19.70;43.30;18.70;101271.00;;;;5066144;28;20426;-73
2022/11/05 08:49:39;;;;;;;2.30;1.20;;;19.60;43.20;18.70;101279.00;;;;5066247;28;20529;-75
2022/11/05 08:52:05;;;;;;;1.63;1.37;;;19.60;43.20;18.70;101278.00;;;;5061746;28;20570;-71
2022/11/05 08:54:31;;;;;;;2.07;1.00;;;19.70;43.30;18.70;101267.00;;;;5068799;28;20128;-71
2022/11/05 08:56:56;;;;;;;1.23;1.07;;;19.60;43.20;18.70;101276.00;;;;5066649;28;20111;-71
2022/11/05 08:59:22;;;;;;;2.90;1.43;;;19.60;43.20;18.70;101274.00;;;;5065659;28;20117;-70
2022/11/05 09:01:49;;;;;;;1.20;1.10;;;19.60;43.30;18.70;101282.00;;;;5064203;28;20116;-71
2022/11/05 09:04:15;;;;;;;;;;;19.70;43.40;18.70;101286.00;;;;5067669;28;20402;-70
2022/11/05 09:06:40;;;;;;;1.30;1.20;;;19.60;43.50;18.70;101283.00;;;;5069312;28;19916;-71
2022/11/05 09:09:06;;;;;;;2.17;1.23;;;19.70;43.30;18.70;101295.00;;;;5051873;28;20029;-70
2022/11/05 09:11:32;;;;;;;1.43;1.30;;;19.70;43.40;18.70;101280.00;;;;5069488;28;20067;-71
2022/11/05 09:13:58;;;;;;;1.30;1.20;;;19.70;43.40;18.70;101281.00;;;;5070155;28;20103;-71
2022/11/05 09:16:24;;;;;;;1.30;1.20;;;19.70;43.40;18.70;101286.00;;;;5071167;28;20575;-71
2022/11/05 09:18:50;;;;;;;1.45;1.15;;;19.70;43.40;18.70;101289.00;;;;5048842;28;20020;-70
2022/11/05 09:21:17;;;;;;;2.00;1.40;;;19.70;43.50;18.70;101291.00;;;;5069886;28;20084;-71
2022/11/05 09:23:43;;;;;;;1.50;1.10;;;19.80;43.60;18.70;101284.00;;;;5052544;28;20012;-70
2022/11/05 09:26:10;;;;;;;;;;;19.60;43.50;18.70;101291.00;;;;5071354;28;20083;-70
2022/11/05 09:28:35;;;;;;;2.40;1.50;;;19.80;43.70;18.70;101289.00;;;;5052676;28;20410;-71
2022/11/05 09:31:06;;;;;;;1.43;1.07;;;19.70;43.50;18.70;101288.00;;;;5051444;28;20040;-71
2022/11/05 09:33:31;;;;;;;1.30;1.20;;;19.70;43.60;18.70;101289.00;;;;5071117;28;20016;-70
2022/11/05 09:35:58;;;;;;;1.93;1.60;;;19.80;43.70;18.70;101293.00;;;;5067298;28;20489;-70
2022/11/05 09:38:24;;;;;;;;;;;19.70;43.70;18.70;101290.00;;;;5048638;28;20024;-71
2022/11/05 09:41:30;;;;;;;2.17;1.33;;;19.80;43.80;18.70;101295.00;;;;5062206;28;19916;-70
2022/11/05 09:44:01;;;;;;;1.63;1.17;;;19.70;43.60;18.70;101298.00;;;;5045989;28;20032;-70
2022/11/05 09:46:34;;;;;;;1.75;1.23;;;19.80;43.80;18.70;101301.00;;;;5050885;28;20058;-70
2022/11/05 09:49:03;;;;;;;1.92;1.20;;;19.70;43.80;18.70;101297.00;;;;5050592;28;20068;-70
2022/11/05 09:51:29;;;;;;;3.90;1.30;;;19.70;43.80;18.70;101304.00;;;;5048759;28;20048;-70
2022/11/05 09:53:55;;;;;;;2.53;1.40;;;19.80;43.90;18.80;101308.00;;;;5053090;28;20032;-70
2022/11/05 09:56:25;;;;;;;1.40;1.30;;;19.70;43.90;18.80;101311.00;;;;5082784;28;20037;-70
2022/11/05 09:59:01;;;;;;;1.55;1.45;;;19.80;44.00;18.80;101302.00;;;;5053246;28;20028;-71
2022/11/05 10:01:35;;;;;;;1.60;1.50;;;19.80;44.00;18.80;101306.00;;;;5035266;28;20032;-71
2022/11/05 10:04:06;;;;;;;1.60;1.25;;;19.70;44.00;18.80;101306.00;;;;5068930;28;20194;-70
2022/11/05 10:06:31;;;;;;;3.45;1.40;;;19.80;44.10;18.80;101303.00;;;;5059179;28;20021;-70
2022/11/05 10:09:05;;;;;;;1.83;1.17;;;19.80;44.10;18.80;101302.00;;;;5069818;28;20291;-70
2022/11/05 10:11:44;;;;;;;1.98;1.52;;;19.80;44.10;18.80;101303.00;;;;5040111;28;20032;-70
2022/11/05 10:14:32;;;;;;;1.52;1.40;;;19.80;44.20;18.80;101298.00;;;;5046877;28;20095;-74
2022/11/05 10:17:15;;;;;;;2.33;1.20;;;19.80;44.90;18.80;101305.00;;;;5041147;28;20514;-81
2022/11/05 10:19:46;;;;;;;2.15;1.50;;;19.80;44.20;18.80;101294.00;;;;5032891;28;20033;-78
2022/11/05 10:22:16;;;;;;;2.15;1.48;;;19.80;44.20;18.80;101301.00;;;;5045769;28;20036;-73
2022/11/05 10:24:48;;;;;;;4.05;1.60;;;19.80;44.30;18.80;101297.00;;;;5049356;28;20071;-73
2022/11/05 10:27:35;;;;;;;4.80;2.22;;;19.80;44.30;18.80;101294.00;;;;5050313;28;20044;-76
2022/11/05 10:30:01;;;;;;;3.55;1.63;;;19.80;44.40;18.80;101306.00;;;;5048844;28;20062;-73
2022/11/05 10:32:38;;;;;;;1.63;1.37;;;19.80;44.40;18.80;101300.00;;;;5048043;28;20028;-72
2022/11/05 10:35:06;;;;;;;1.33;1.20;;;19.80;44.40;18.80;101306.00;;;;5049755;28;20386;-76
2022/11/05 10:37:32;;;;;;;2.03;1.48;;;19.80;44.40;18.80;101305.00;;;;5052515;28;20029;-76
2022/11/05 10:39:58;;;;;;;1.33;1.23;;;19.80;44.40;18.80;101293.00;;;;5045812;28;20383;-80
2022/11/05 10:43:13;;;;;;;3.20;1.47;;;19.80;44.50;18.80;101300.00;;;;5039150;28;20181;-76
2022/11/05 10:45:58;;;;;;;2.30;1.42;;;19.80;44.50;18.80;101305.00;;;;5061927;28;20078;-76
2022/11/05 10:48:49;;;;;;;2.33;1.40;;;19.80;44.50;18.80;101296.00;;;;5030747;28;20437;-76
2022/11/05 10:51:14;;;;;;;1.70;1.27;;;19.80;44.60;18.80;101304.00;;;;5047176;28;20041;-76
2022/11/05 10:53:48;;;;;;;2.87;1.73;;;19.80;44.50;18.80;101301.00;;;;5050808;28;20039;-73
2022/11/05 10:56:35;;;;;;;3.28;1.70;;;19.80;44.60;18.80;101300.00;;;;5053194;28;20576;-73
2022/11/05 10:59:02;;;;;;;2.33;1.55;;;19.80;44.60;18.80;101303.00;;;;5052033;28;20040;-73
2022/11/05 11:01:28;;;;;;;1.65;1.40;;;19.80;44.60;18.80;101304.00;;;;5051105;28;20025;-72
2022/11/05 11:04:07;;;;;;;2.05;1.40;;;19.80;44.70;18.80;101306.00;;;;5046665;28;20082;-73
2022/11/05 11:06:36;;;;;;;3.80;1.75;;;19.80;44.70;18.80;101305.00;;;;5048454;28;20029;-73
2022/11/05 11:09:07;;;;;;;2.58;1.35;;;19.80;44.60;18.80;101305.00;;;;5042228;28;20047;-73
2022/11/05 11:11:40;;;;;;;1.80;1.25;;;19.80;44.70;18.80;101303.00;;;;5052690;28;20450;-73
2022/11/05 11:14:17;;;;;;;1.20;1.10;;;19.80;44.70;18.80;101304.00;;;;5067990;28;20013;-73
2022/11/05 11:16:45;;;;;;;4.38;1.55;;;19.80;44.70;18.80;101298.00;;;;5071037;28;20048;-73
2022/11/05 11:19:23;;;;;;;2.25;1.50;;;19.80;44.70;18.80;101301.00;;;;5053839;28;20038;-73
2022/11/05 11:22:04;;;;;;;2.10;1.25;;;19.80;44.70;18.80;101296.00;;;;5070368;28;20466;-73
2022/11/05 11:24:36;;;;;;;2.45;1.55;;;19.80;44.70;18.80;101297.00;;;;5068360;28;20059;-73
2022/11/05 11:27:21;;;;;;;2.85;1.90;;;19.80;44.70;18.80;101301.00;;;;5041728;28;20071;-73
2022/11/05 11:29:58;;;;;;;2.80;1.50;;;19.80;44.70;18.80;101293.00;;;;5055890;28;20020;-73
2022/11/05 11:32:37;;;;;;;1.95;1.40;;;19.80;44.70;18.80;101296.00;;;;5053096;28;20387;-73
2022/11/05 11:35:03;;;;;;;3.47;1.80;;;19.90;44.80;18.80;101292.00;;;;5056197;28;20078;-73
2022/11/05 11:37:36;;;;;;;4.43;1.50;;;19.80;44.70;18.80;101299.00;;;;5036177;28;20074;-73
2022/11/05 11:40:14;;;;;;;2.08;1.33;;;19.80;44.80;18.80;101297.00;;;;5035391;28;20043;-73